Time;durP1;ratioP1;P1;durP2;ratioP2;P2;SDS_P1;SDS_P2;PMS_P1;PMS_P2;Temp;Humidity;BMP_temperature;BMP_pressure;BME280_temperature;BME280_humidity;BME280_pressure;Samples;Min_cycle;Max_cycle;Signal;HPM_P1;HPM_P2
2022/05/06 00:00:55;;;;;;;;;27.50;26.00;;;;;12.83;64.02;101666.00;4957253;28;45135;-61
2022/05/06 00:03:21;;;;;;;;;31.50;26.50;;;;;12.78;64.21;101662.66;4957627;28;45716;-60
2022/05/06 00:05:47;;;;;;;;;26.75;23.75;;;;;12.70;64.20;101660.25;4958880;28;45399;-61
2022/05/06 00:08:13;;;;;;;;;31.50;28.25;;;;;12.73;64.74;101669.00;4957273;28;45345;-61
2022/05/06 00:10:39;;;;;;;;;27.00;25.25;;;;;12.63;64.47;101661.34;4958064;28;45471;-60
2022/05/06 00:13:05;;;;;;;;;27.00;25.00;;;;;12.68;64.84;101664.72;4939210;28;45418;-62
2022/05/06 00:15:31;;;;;;;;;29.50;28.50;;;;;12.65;65.18;101667.44;4959211;28;45592;-61
2022/05/06 00:17:56;;;;;;;;;29.25;26.50;;;;;12.60;65.79;101656.16;4964676;28;45314;-61
2022/05/06 00:20:22;;;;;;;;;30.75;29.25;;;;;12.62;65.93;101671.97;4957962;28;45450;-61
2022/05/06 00:22:47;;;;;;;;;34.75;29.25;;;;;12.63;65.35;101653.44;4957513;28;45338;-61
2022/05/06 00:25:12;;;;;;;;;25.50;22.00;;;;;12.66;65.32;101660.41;4957174;28;45533;-61
2022/05/06 00:27:40;;;;;;;;;32.50;30.25;;;;;12.68;65.26;101666.50;4958004;28;45945;-61
2022/05/06 00:30:06;;;;;;;;;30.50;25.75;;;;;12.66;65.64;101669.16;4956938;28;45292;-61
2022/05/06 00:32:33;;;;;;;;;30.50;27.00;;;;;12.63;65.43;101658.72;4956694;28;45220;-61
2022/05/06 00:34:58;;;;;;;;;27.75;26.25;;;;;12.62;65.42;101666.69;4938966;28;45359;-61
2022/05/06 00:37:23;;;;;;;;;24.75;23.75;;;;;12.58;65.76;101671.19;4956352;28;46574;-61
2022/05/06 00:39:49;;;;;;;;;34.25;30.00;;;;;12.56;65.77;101663.34;4955788;28;45432;-61
2022/05/06 00:42:15;;;;;;;;;33.00;28.00;;;;;12.55;66.07;101669.53;4957588;28;45338;-61
2022/05/06 00:44:41;;;;;;;;;31.50;30.75;;;;;12.55;66.11;101671.28;4957252;28;45354;-61
2022/05/06 00:47:06;;;;;;;;;30.75;27.75;;;;;12.51;65.84;101653.81;4937925;28;47214;-63
2022/05/06 00:49:32;;;;;;;;;28.50;28.00;;;;;12.53;66.27;101660.78;4955904;28;45339;-61
2022/05/06 00:51:57;;;;;;;;;29.25;24.50;;;;;12.42;65.97;101640.00;4956384;28;45279;-61
2022/05/06 00:54:23;;;;;;;;;33.50;30.50;;;;;12.53;66.13;101655.50;4956183;28;45459;-61
2022/05/06 00:56:50;;;;;;;;;33.00;28.25;;;;;12.55;66.36;101660.72;4958138;28;46560;-60
2022/05/06 00:59:17;;;;;;;;;32.50;27.75;;;;;12.49;66.14;101655.66;4959934;28;45221;-61
2022/05/06 01:01:42;;;;;;;;;32.00;28.00;;;;;12.53;66.26;101655.50;4946517;28;45237;-61
2022/05/06 01:04:08;;;;;;;;;31.50;28.75;;;;;12.51;66.65;101645.91;4962193;28;45546;-61
2022/05/06 01:06:35;;;;;;;;;31.50;27.75;;;;;12.52;66.38;101660.81;4960112;28;46138;-61
2022/05/06 01:09:00;;;;;;;;;31.00;28.25;;;;;12.53;66.72;101644.06;4959813;28;45356;-61
2022/05/06 01:11:26;;;;;;;;;28.75;28.75;;;;;12.53;66.50;101644.97;4960841;28;45310;-61
2022/05/06 01:13:55;;;;;;;;;31.00;29.00;;;;;12.51;66.26;101644.13;4942929;28;45451;-61
2022/05/06 01:16:20;;;;;;;;;31.00;30.00;;;;;12.51;66.20;101640.63;4958949;28;46347;-61
2022/05/06 01:18:47;;;;;;;;;33.75;30.75;;;;;12.55;66.61;101658.09;4959081;28;45251;-59
2022/05/06 01:21:22;;;;;;;;;31.50;30.00;;;;;12.53;66.28;101654.63;4958606;28;45231;-61
2022/05/06 01:23:47;;;;;;;;;27.75;26.00;;;;;12.50;66.60;101645.06;4960159;28;45235;-61
2022/05/06 01:26:12;;;;;;;;;34.50;30.25;;;;;12.47;67.21;101649.53;4962034;28;45168;-62
2022/05/06 01:28:41;;;;;;;;;30.00;26.75;;;;;12.42;66.99;101653.19;4961665;28;45375;-63
2022/05/06 01:31:08;;;;;;;;;28.00;27.00;;;;;12.39;66.84;101649.81;4961523;28;45355;-61
2022/05/06 01:33:35;;;;;;;;;30.50;29.25;;;;;12.38;67.51;101653.34;4942232;28;45396;-61
2022/05/06 01:36:04;;;;;;;;;33.50;31.25;;;;;12.32;67.55;101656.19;4957909;28;47100;-60
2022/05/06 01:38:36;;;;;;;;;34.50;30.50;;;;;12.30;67.28;101655.34;4958391;28;45488;-60
2022/05/06 01:41:09;;;;;;;;;33.00;26.50;;;;;12.28;67.59;101658.03;4958177;28;45166;-61
2022/05/06 01:43:42;;;;;;;;;30.25;29.00;;;;;12.26;67.90;101650.19;4958357;28;45354;-61
2022/05/06 01:46:13;;;;;;;;;34.50;31.50;;;;;12.23;67.89;101655.53;4957885;28;46298;-60
2022/05/06 01:48:41;;;;;;;;;35.50;31.25;;;;;12.21;67.68;101651.22;4958400;28;45420;-60
2022/05/06 01:51:10;;;;;;;;;30.75;23.50;;;;;12.19;67.88;101651.25;4941342;28;45485;-61
2022/05/06 01:53:36;;;;;;;;;35.75;31.75;;;;;12.14;67.89;101645.25;4958502;28;45321;-60
2022/05/06 01:56:02;;;;;;;;;27.00;21.75;;;;;12.06;68.74;101642.84;4957989;28;46287;-60
2022/05/06 01:58:28;;;;;;;;;32.50;29.25;;;;;12.05;68.51;101650.78;4958795;28;45280;-59
2022/05/06 02:00:53;;;;;;;;;29.00;29.00;;;;;12.02;68.36;101657.03;4958207;28;45698;-59
2022/05/06 02:06:03;;;;;;;;;36.75;31.50;;;;;11.94;69.28;101651.09;4957855;28;45387;-60
2022/05/06 02:08:28;;;;;;;;;31.50;29.00;;;;;11.89;69.71;101658.25;4957905;28;45328;-60
2022/05/06 02:10:53;;;;;;;;;37.25;30.25;;;;;11.88;69.20;101659.19;4958853;28;45512;-60
2022/05/06 02:13:19;;;;;;;;;42.50;34.25;;;;;11.84;69.12;101654.00;4959771;28;45320;-61
2022/05/06 02:15:45;;;;;;;;;26.75;26.00;;;;;11.82;69.63;101650.53;4958011;28;46748;-60
2022/05/06 02:18:10;;;;;;;;;34.75;30.25;;;;;11.81;69.67;101658.47;4957753;28;45364;-61
2022/05/06 02:20:37;;;;;;;;;40.75;31.75;;;;;11.81;70.07;101661.09;4957743;28;45361;-59
2022/05/06 02:23:02;;;;;;;;;30.00;29.00;;;;;11.77;69.80;101651.56;4957942;28;45415;-60
2022/05/06 02:25:28;;;;;;;;;33.25;31.00;;;;;11.75;70.58;101656.88;4940049;28;46847;-61
2022/05/06 02:27:53;;;;;;;;;36.50;32.25;;;;;11.71;70.26;101652.59;4940846;28;45969;-60
2022/05/06 02:33:15;;;;;;;;;32.50;30.75;;;;;11.64;69.90;101641.34;4958706;28;45355;-61
2022/05/06 02:35:42;;;;;;;;;34.75;31.00;;;;;11.65;70.63;101658.00;4940848;28;48293;-60
2022/05/06 02:38:09;;;;;;;;;34.25;29.50;;;;;11.63;70.49;101660.72;4959023;28;45322;-60
2022/05/06 02:40:37;;;;;;;;;33.75;30.25;;;;;11.61;70.65;101651.97;4957717;28;45395;-61
2022/05/06 02:43:04;;;;;;;;;34.25;30.75;;;;;11.60;70.49;101654.66;4957776;28;45314;-60
2022/05/06 02:45:30;;;;;;;;;36.75;32.75;;;;;11.58;71.04;101661.72;4957272;28;45231;-60
2022/05/06 02:47:57;;;;;;;;;39.25;31.75;;;;;11.55;70.81;101663.53;4939742;28;45354;-60
2022/05/06 02:50:23;;;;;;;;;35.25;31.00;;;;;11.53;71.18;101654.81;4957360;28;45229;-61
2022/05/06 02:52:48;;;;;;;;;35.00;32.50;;;;;11.51;70.98;101656.63;4940275;28;45399;-60
2022/05/06 02:55:14;;;;;;;;;37.25;31.00;;;;;11.46;70.88;101649.75;4957287;28;45495;-60
2022/05/06 02:57:39;;;;;;;;;31.50;29.75;;;;;11.48;70.94;101664.59;4958662;28;45400;-61
2022/05/06 03:00:05;;;;;;;;;32.75;29.50;;;;;11.44;70.89;101664.75;4961909;28;45447;-60
2022/05/06 03:02:31;;;;;;;;;34.25;30.50;;;;;11.40;71.77;101659.56;4962719;28;45383;-61
2022/05/06 03:04:56;;;;;;;;;29.50;29.25;;;;;11.42;71.96;101669.19;4939856;28;47244;-62
2022/05/06 03:07:22;;;;;;;;;33.00;30.00;;;;;11.42;71.51;101669.19;4957214;28;45359;-60
2022/05/06 03:09:47;;;;;;;;;35.00;32.00;;;;;11.38;71.43;101671.03;4957277;28;45429;-60
2022/05/06 03:12:16;;;;;;;;;32.25;29.00;;;;;11.42;71.32;101662.13;4958030;28;45355;-61
2022/05/06 03:14:41;;;;;;;;;33.25;31.00;;;;;11.40;71.88;101670.09;4940212;28;46077;-62
2022/05/06 03:17:08;;;;;;;;;32.25;30.25;;;;;11.30;71.92;101658.06;4939496;28;45347;-61
2022/05/06 03:19:34;;;;;;;;;37.75;31.75;;;;;11.37;72.10;101666.66;4957228;28;45431;-59
2022/05/06 03:21:59;;;;;;;;;36.25;32.50;;;;;11.31;72.32;101654.53;4958262;28;45427;-60
2022/05/06 03:24:25;;;;;;;;;34.00;30.00;;;;;11.29;72.17;101656.34;4940705;28;46924;-61
2022/05/06 03:26:50;;;;;;;;;35.75;31.50;;;;;11.32;72.15;101666.81;4957020;28;45294;-60
2022/05/06 03:29:15;;;;;;;;;35.75;32.25;;;;;11.27;72.59;101667.81;4956906;28;45438;-61
2022/05/06 03:31:41;;;;;;;;;35.50;31.50;;;;;11.23;72.95;101667.03;4957227;28;45439;-61
2022/05/06 03:34:07;;;;;;;;;37.75;33.00;;;;;11.23;72.69;101667.88;4940059;28;46755;-61
2022/05/06 03:36:33;;;;;;;;;40.25;33.50;;;;;11.18;72.88;101663.66;4959338;28;45307;-59
2022/05/06 03:38:59;;;;;;;;;34.25;30.75;;;;;11.21;73.46;101676.75;4959209;28;45259;-59
2022/05/06 03:41:25;;;;;;;;;44.75;32.75;;;;;11.02;72.98;101647.38;4958251;28;45600;-60
2022/05/06 03:43:50;;;;;;;;;34.25;29.00;;;;;11.20;73.54;101675.03;4958016;28;45722;-60
2022/05/06 03:46:15;;;;;;;;;38.50;34.50;;;;;11.20;73.42;101673.22;4958344;28;45344;-59
2022/05/06 03:48:41;;;;;;;;;38.50;30.75;;;;;11.21;73.59;101679.38;4958458;28;45376;-60
2022/05/06 03:51:22;;;;;;;;;36.25;32.00;;;;;11.17;73.37;101667.19;4958937;28;45498;-60
2022/05/06 03:53:48;;;;;;;;;34.50;31.00;;;;;11.21;72.95;101672.34;4957480;28;46154;-61
2022/05/06 03:56:14;;;;;;;;;35.75;32.00;;;;;11.16;73.32;101661.06;4939063;28;45899;-61
2022/05/06 03:58:39;;;;;;;;;44.00;34.50;;;;;11.19;73.29;101668.03;4956402;28;45219;-61
2022/05/06 04:01:07;;;;;;;;;30.25;28.75;;;;;11.20;73.67;101667.13;4957400;28;45530;-61
2022/05/06 04:03:33;;;;;;;;;41.75;33.25;;;;;11.21;73.48;101672.34;4959367;28;47084;-60
2022/05/06 04:05:58;;;;;;;;;42.00;33.25;;;;;11.20;73.26;101673.22;4959591;28;45297;-60
2022/05/06 04:08:24;;;;;;;;;32.00;29.50;;;;;11.19;74.41;101682.03;4959595;28;45460;-60
2022/05/06 04:10:49;;;;;;;;;35.00;30.50;;;;;11.17;73.84;101678.59;4960261;28;45505;-61
2022/05/06 04:13:18;;;;;;;;;36.00;31.25;;;;;11.16;73.96;101676.84;4960551;28;46228;-60
2022/05/06 04:15:44;;;;;;;;;35.75;30.25;;;;;11.15;73.52;101682.19;4961529;28;45349;-61
2022/05/06 04:18:09;;;;;;;;;37.75;32.00;;;;;11.13;74.02;101679.56;4963274;28;45249;-59
2022/05/06 04:23:30;;;;;;;;;40.25;31.25;;;;;11.10;73.97;101682.28;4961614;28;45756;-63
2022/05/06 04:26:07;;;;;;;;;37.25;30.75;;;;;11.03;73.95;101676.28;4959604;28;45212;-60
2022/05/06 04:28:33;;;;;;;;;39.00;33.00;;;;;11.09;74.03;101688.44;4958437;28;45326;-62
2022/05/06 04:30:59;;;;;;;;;37.25;34.75;;;;;11.07;73.77;101683.19;4959038;28;45510;-60
2022/05/06 04:33:25;;;;;;;;;38.50;34.00;;;;;11.06;73.92;101684.09;4962768;28;46109;-60
2022/05/06 04:35:52;;;;;;;;;38.75;33.25;;;;;11.06;74.23;101688.50;4963129;28;45380;-61
2022/05/06 04:38:17;;;;;;;;;36.50;32.25;;;;;11.07;74.24;101692.88;4962407;28;45337;-61
2022/05/06 04:40:43;;;;;;;;;36.50;33.50;;;;;11.07;73.93;101701.63;4960242;28;45394;-60
2022/05/06 04:43:09;;;;;;;;;36.75;32.00;;;;;11.08;74.24;101697.25;4959160;28;46450;-61
2022/05/06 04:45:39;;;;;;;;;39.00;34.25;;;;;11.09;74.15;101697.19;4960095;28;45483;-61
2022/05/06 04:48:06;;;;;;;;;40.75;33.50;;;;;11.10;73.76;101698.06;4941637;28;45536;-62
2022/05/06 04:50:33;;;;;;;;;33.50;30.25;;;;;11.09;73.78;101696.34;4959609;28;45394;-61
2022/05/06 04:52:58;;;;;;;;;36.50;33.25;;;;;11.14;73.83;101705.00;4958881;28;47029;-61
2022/05/06 04:55:24;;;;;;;;;40.00;33.75;;;;;11.17;73.49;101710.19;4959103;28;45222;-61
2022/05/06 04:57:49;;;;;;;;;44.25;34.75;;;;;11.18;73.36;101711.91;4959278;28;45348;-62
2022/05/06 05:00:15;;;;;;;;;38.00;32.00;;;;;11.20;73.81;101702.22;4959882;28;45560;-62
2022/05/06 05:02:41;;;;;;;;;38.00;30.00;;;;;11.25;73.52;101716.13;4959584;28;45337;-62
2022/05/06 05:05:06;;;;;;;;;41.75;34.00;;;;;11.25;73.15;101718.75;4959599;28;45260;-62
2022/05/06 05:07:32;;;;;;;;;37.50;33.00;;;;;11.27;73.71;101708.19;4959516;28;45199;-61
2022/05/06 05:09:57;;;;;;;;;34.00;30.00;;;;;11.33;73.52;101713.31;4942011;28;45273;-60
2022/05/06 05:12:24;;;;;;;;;35.75;31.75;;;;;11.37;73.65;101722.88;4959549;28;47038;-60
2022/05/06 05:14:50;;;;;;;;;40.50;35.00;;;;;11.39;73.24;101723.69;4958487;28;45338;-61
2022/05/06 05:17:15;;;;;;;;;34.50;31.75;;;;;11.21;73.18;101682.00;4959265;28;45409;-60
2022/05/06 05:19:40;;;;;;;;;28.00;25.50;;;;;11.49;72.75;101720.81;4959679;28;45492;-61
2022/05/06 05:22:06;;;;;;;;;36.75;31.50;;;;;11.52;72.74;101715.47;4958734;28;45416;-62
2022/05/06 05:24:31;;;;;;;;;38.75;33.75;;;;;11.56;72.62;101714.50;4941269;28;45326;-62
2022/05/06 05:26:57;;;;;;;;;39.75;31.25;;;;;11.62;72.66;101723.97;4941556;28;45376;-61
2022/05/06 05:29:23;;;;;;;;;37.00;32.75;;;;;11.61;72.29;101709.06;4941017;28;45630;-61
2022/05/06 05:31:50;;;;;;;;;40.25;34.75;;;;;11.65;72.40;101719.50;4958077;28;45404;-60
2022/05/06 05:34:15;;;;;;;;;39.50;33.25;;;;;11.68;72.85;101716.78;4958391;28;45347;-61
2022/05/06 05:36:41;;;;;;;;;45.25;37.25;;;;;11.74;72.33;101710.50;4941501;28;45308;-64
2022/05/06 05:39:06;;;;;;;;;41.25;34.75;;;;;11.80;72.10;101714.72;4960231;28;45544;-60
2022/05/06 05:41:32;;;;;;;;;36.50;32.75;;;;;11.84;72.10;101719.91;4941896;28;47068;-60
2022/05/06 05:49:26;;;;;;;;;45.75;37.25;;;;;11.95;71.74;101734.56;4960719;28;45339;-60
2022/05/06 05:51:52;;;;;;;;;38.75;35.25;;;;;11.95;72.45;101735.41;4959577;28;45369;-60
2022/05/06 05:54:17;;;;;;;;;44.25;34.25;;;;;12.01;72.12;101734.41;4940638;28;45310;-61
2022/05/06 05:56:43;;;;;;;;;39.50;31.75;;;;;12.08;72.14;101733.34;4959673;28;45347;-60
2022/05/06 05:59:08;;;;;;;;;41.75;35.75;;;;;12.19;71.47;101730.38;4940852;28;45240;-61
2022/05/06 06:01:33;;;;;;;;;40.75;33.75;;;;;12.23;71.20;101731.16;4958085;28;46264;-62
2022/05/06 06:03:59;;;;;;;;;44.25;33.75;;;;;12.28;71.25;101731.91;4957968;28;49684;-62
2022/05/06 06:06:24;;;;;;;;;41.75;34.50;;;;;12.33;71.16;101726.50;4940444;28;45343;-61
2022/05/06 06:08:50;;;;;;;;;46.00;35.75;;;;;12.39;71.25;101719.25;4958656;28;45303;-61
2022/05/06 06:11:17;;;;;;;;;45.25;34.50;;;;;12.45;70.69;101707.66;4960601;28;46599;-60
2022/05/06 06:13:43;;;;;;;;;40.25;36.50;;;;;12.50;70.28;101710.16;4962454;28;45336;-60
2022/05/06 06:16:08;;;;;;;;;41.25;34.25;;;;;12.62;70.66;101711.56;4957601;28;45423;-61
2022/05/06 06:18:34;;;;;;;;;45.75;36.50;;;;;12.65;70.65;101712.31;4957494;28;45219;-61
2022/05/06 06:20:59;;;;;;;;;54.50;43.75;;;;;12.73;70.35;101713.88;4957201;28;45358;-61
2022/05/06 06:23:25;;;;;;;;;46.25;36.75;;;;;12.81;70.08;101718.00;4957289;28;46000;-60
2022/05/06 06:25:50;;;;;;;;;39.25;34.00;;;;;12.81;69.77;101714.50;4957451;28;45861;-61
2022/05/06 06:28:15;;;;;;;;;44.50;37.75;;;;;12.83;69.63;101726.72;4957336;28;45224;-60
2022/05/06 06:30:41;;;;;;;;;36.00;33.25;;;;;12.85;69.56;101718.78;4957555;28;45242;-63
2022/05/06 06:33:07;;;;;;;;;46.00;36.25;;;;;12.91;69.50;101731.78;4957269;28;45202;-61
2022/05/06 06:35:33;;;;;;;;;47.50;38.25;;;;;12.91;69.28;101729.16;4957429;28;45345;-61
2022/05/06 06:38:00;;;;;;;;;48.50;38.75;;;;;12.79;69.04;101692.56;4941969;28;45271;-61
2022/05/06 06:40:25;;;;;;;;;44.25;36.00;;;;;13.08;68.79;101722.47;4957697;28;45697;-60
2022/05/06 06:42:50;;;;;;;;;40.25;34.50;;;;;13.12;68.56;101729.38;4958424;28;45355;-61
2022/05/06 06:45:16;;;;;;;;;37.50;32.25;;;;;13.15;68.95;101729.25;4957431;28;45435;-60
2022/05/06 06:47:41;;;;;;;;;41.25;34.75;;;;;13.22;67.96;101736.06;4940073;28;45268;-62
2022/05/06 06:50:07;;;;;;;;;46.50;37.25;;;;;13.26;68.01;101737.69;4956998;28;45328;-60
2022/05/06 06:52:33;;;;;;;;;40.25;36.00;;;;;13.30;67.73;101731.41;4939472;28;45587;-61
2022/05/06 06:54:59;;;;;;;;;46.25;36.25;;;;;13.38;68.10;101733.81;4955892;28;45360;-61
2022/05/06 06:57:26;;;;;;;;;42.25;34.25;;;;;13.47;67.38;101730.00;4956779;28;45287;-62
2022/05/06 06:59:51;;;;;;;;;46.00;37.00;;;;;13.51;67.44;101722.84;4957162;28;45838;-62
2022/05/06 07:02:17;;;;;;;;;44.25;33.75;;;;;13.59;67.07;101734.00;4957482;28;45226;-60
2022/05/06 07:04:42;;;;;;;;;40.75;36.50;;;;;13.65;66.92;101727.63;4957744;28;45247;-61
2022/05/06 07:12:35;;;;;;;;;40.50;34.25;;;;;13.76;66.85;101730.75;4957040;28;45267;-62
2022/05/06 07:15:02;;;;;;;;;40.25;34.25;;;;;13.81;66.58;101726.22;4939079;28;45312;-61
2022/05/06 07:17:28;;;;;;;;;41.00;33.75;;;;;13.93;66.35;101730.19;4939294;28;45625;-62
2022/05/06 07:19:54;;;;;;;;;33.50;31.75;;;;;14.02;66.03;101742.22;4956916;28;46360;-61
2022/05/06 07:22:19;;;;;;;;;37.50;33.50;;;;;14.07;65.63;101734.97;4958046;28;45439;-61
2022/05/06 07:24:44;;;;;;;;;39.25;31.00;;;;;14.11;65.54;101741.00;4943697;28;45965;-64
2022/05/06 07:27:11;;;;;;;;;32.75;29.25;;;;;13.84;65.34;101701.41;4958846;28;45532;-61
2022/05/06 07:29:36;;;;;;;;;35.00;30.25;;;;;14.14;65.34;101749.72;4958077;28;46088;-61
2022/05/06 07:32:02;;;;;;;;;37.25;32.25;;;;;14.16;65.29;101745.22;4958636;28;45424;-61
2022/05/06 07:34:28;;;;;;;;;35.00;32.25;;;;;14.23;65.22;101751.13;4956703;28;45406;-61
2022/05/06 07:36:54;;;;;;;;;33.25;31.25;;;;;14.32;64.99;101755.25;4957071;28;45552;-62
2022/05/06 07:39:19;;;;;;;;;46.25;35.75;;;;;14.35;65.05;101749.84;4960419;28;47201;-61
2022/05/06 07:41:46;;;;;;;;;33.50;29.00;;;;;14.48;64.60;101749.38;4956877;28;45252;-61
2022/05/06 07:44:11;;;;;;;;;32.25;27.75;;;;;14.56;64.57;101750.81;4957748;28;45251;-61
2022/05/06 07:46:37;;;;;;;;;28.00;26.50;;;;;14.63;64.26;101756.72;4958693;28;45236;-65
2022/05/06 07:49:04;;;;;;;;;33.50;28.25;;;;;14.59;64.13;101734.81;4960114;28;45634;-64
2022/05/06 07:51:30;;;;;;;;;34.50;31.50;;;;;14.75;63.93;101755.44;4956619;28;45450;-62
2022/05/06 07:53:59;;;;;;;;;32.25;29.75;;;;;14.85;63.90;101743.53;4940186;28;45261;-61
2022/05/06 07:56:26;;;;;;;;;27.00;27.00;;;;;14.97;63.34;101741.31;4956418;28;45546;-61
2022/05/06 07:58:52;;;;;;;;;29.25;29.25;;;;;15.08;63.26;101730.31;4958655;28;46140;-61
2022/05/06 08:06:48;;;;;;;;;23.50;20.00;;;;;15.54;62.01;101733.69;4956382;28;45174;-61
2022/05/06 08:09:13;;;;;;;;;32.00;29.75;;;;;15.60;61.99;101730.75;4936931;28;48541;-62
2022/05/06 08:11:38;;;;;;;;;32.00;30.25;;;;;15.77;61.49;101745.94;4957902;28;45587;-62
2022/05/06 08:14:04;;;;;;;;;28.50;28.50;;;;;15.84;61.52;101738.56;4956121;28;45410;-60
2022/05/06 08:16:29;;;;;;;;;30.25;29.75;;;;;15.98;61.09;101740.66;4956596;28;45524;-61
2022/05/06 08:18:54;;;;;;;;;27.50;25.50;;;;;16.16;60.59;101754.91;4958395;28;45219;-63
2022/05/06 08:21:20;;;;;;;;;31.25;28.50;;;;;16.27;60.36;101750.91;4956882;28;45263;-61
2022/05/06 08:23:45;;;;;;;;;28.25;25.25;;;;;16.36;59.94;101740.69;4955841;28;45275;-62
2022/05/06 08:26:11;;;;;;;;;21.75;21.75;;;;;16.44;59.33;101747.47;4955964;28;45421;-61
2022/05/06 08:28:36;;;;;;;;;20.25;17.75;;;;;16.54;58.77;101737.28;4955274;28;45922;-60
2022/05/06 08:31:02;;;;;;;;;16.50;16.50;;;;;16.62;58.03;101740.44;4937941;28;45450;-61
2022/05/06 08:33:28;;;;;;;;;19.00;17.00;;;;;16.65;58.21;101729.66;4955722;28;45364;-60
2022/05/06 08:35:54;;;;;;;;;15.25;13.75;;;;;16.73;57.08;101742.59;4955748;28;45334;-61
2022/05/06 08:38:19;;;;;;;;;16.50;15.25;;;;;16.75;57.43;101741.56;4955547;28;46024;-60
2022/05/06 08:40:44;;;;;;;;;21.25;16.75;;;;;16.74;56.72;101737.19;4955489;28;45283;-61
2022/05/06 08:52:02;;;;;;;;;17.25;15.50;;;;;16.96;55.41;101735.31;4955885;28;45373;-61
2022/05/06 08:54:53;;;;;;;;;19.75;16.50;;;;;17.04;55.30;101739.34;4956207;28;45441;-60
2022/05/06 08:57:19;;;;;;;;;17.50;16.25;;;;;17.05;54.81;101737.53;4956408;28;45417;-61
2022/05/06 08:59:52;;;;;;;;;20.75;20.50;;;;;16.99;55.10;101725.44;4958088;28;45409;-60
2022/05/06 09:02:17;;;;;;;;;18.00;17.00;;;;;17.05;55.49;101743.72;4955489;28;45222;-61
2022/05/06 09:04:43;;;;;;;;;19.50;16.75;;;;;17.10;55.79;101727.53;4955546;28;45314;-62
2022/05/06 09:07:19;;;;;;;;;17.75;16.25;;;;;17.24;55.84;101737.50;4956119;28;45442;-61
2022/05/06 09:10:05;;;;;;;;;199.75;178.50;;;;;17.35;55.44;101729.84;4956920;28;47155;-61
2022/05/06 09:12:42;;;;;;;;;18.50;17.50;;;;;17.52;55.17;101734.31;4956411;28;45261;-62
2022/05/06 09:17:54;;;;;;;;;16.50;16.50;;;;;17.86;54.13;101733.50;4958192;28;45370;-61
2022/05/06 09:20:21;;;;;;;;;14.50;11.50;;;;;17.93;53.10;101741.06;4961105;28;46042;-62
2022/05/06 09:22:48;;;;;;;;;13.75;13.25;;;;;17.91;52.34;101734.09;4964570;28;45205;-62
2022/05/06 09:25:39;;;;;;;;;16.00;14.00;;;;;17.95;52.48;101728.53;4961041;28;45265;-61
2022/05/06 09:28:06;;;;;;;;;14.00;14.00;;;;;17.90;52.34;101727.06;4958629;28;45482;-62
2022/05/06 09:30:34;;;;;;;;;18.50;17.00;;;;;17.99;52.23;101717.72;4958172;28;46148;-61
2022/05/06 09:33:00;;;;;;;;;17.50;15.25;;;;;18.01;52.17;101715.84;4958154;28;45428;-61
2022/05/06 09:35:32;;;;;;;;;12.00;12.00;;;;;18.10;52.11;101729.53;4958214;28;45322;-62
2022/05/06 09:38:02;;;;;;;;;11.75;11.75;;;;;18.15;51.21;101724.00;4959023;28;45513;-63
2022/05/06 09:40:29;;;;;;;;;14.50;14.50;;;;;18.18;51.40;101718.50;4958734;28;45405;-62
2022/05/06 09:42:55;;;;;;;;;13.75;13.00;;;;;18.33;51.61;101722.09;4958919;28;45329;-61
2022/05/06 09:45:33;;;;;;;;;14.75;13.00;;;;;18.40;50.93;101712.00;4958656;28;45335;-61
2022/05/06 09:48:03;;;;;;;;;14.25;13.00;;;;;18.27;50.92;101681.66;4941037;28;45480;-61
2022/05/06 09:50:40;;;;;;;;;12.00;12.00;;;;;18.52;50.43;101721.09;4958922;28;46108;-61
2022/05/06 09:53:11;;;;;;;;;14.00;14.00;;;;;18.53;50.03;101717.47;4959010;28;45215;-59
2022/05/06 09:55:39;;;;;;;;;17.25;14.75;;;;;18.59;50.48;101716.28;4957948;28;45495;-61
2022/05/06 09:58:06;;;;;;;;;17.00;15.75;;;;;18.71;50.03;101704.09;4958041;28;45589;-62
2022/05/06 10:00:32;;;;;;;;;8.00;6.75;;;;;18.86;49.94;101713.88;4957703;28;46997;-62
2022/05/06 10:02:58;;;;;;;;;17.50;15.50;;;;;18.89;49.40;101716.34;4940564;28;45805;-62
2022/05/06 10:05:24;;;;;;;;;17.25;17.25;;;;;18.93;49.45;101715.22;4958140;28;45584;-62
2022/05/06 10:07:55;;;;;;;;;15.75;15.75;;;;;19.06;49.24;101714.56;4941394;28;45505;-61
2022/05/06 10:10:25;;;;;;;;;19.25;18.00;;;;;19.16;48.88;101717.56;4939718;28;47165;-61
2022/05/06 10:13:04;;;;;;;;;18.50;15.75;;;;;19.24;48.71;101720.63;4957430;28;45291;-62
2022/05/06 10:15:31;;;;;;;;;24.00;22.50;;;;;19.27;48.83;101712.44;4957332;28;45255;-60
2022/05/06 10:17:57;;;;;;;;;18.00;16.00;;;;;19.30;48.09;101711.38;4957920;28;45255;-60
2022/05/06 10:20:45;;;;;;;;;16.25;12.50;;;;;19.42;48.01;101706.19;4957372;28;47113;-61
2022/05/06 10:23:12;;;;;;;;;15.75;15.00;;;;;19.49;47.05;101712.00;4957770;28;45429;-61
2022/05/06 10:25:40;;;;;;;;;13.25;12.00;;;;;19.46;47.50;101708.69;4958564;28;45412;-61
2022/05/06 10:34:11;;;;;;;;;14.50;13.00;;;;;19.59;47.29;101711.44;4960564;28;45266;-61
2022/05/06 10:36:53;;;;;;;;;15.00;13.25;;;;;19.66;46.44;101705.66;4959824;28;45410;-61
2022/05/06 10:39:24;;;;;;;;;10.50;10.50;;;;;19.81;46.38;101705.66;4959213;28;45208;-61
2022/05/06 10:42:06;;;;;;;;;11.25;11.25;;;;;19.89;46.80;101700.72;4940773;28;48343;-62
2022/05/06 10:44:33;;;;;;;;;12.00;11.50;;;;;19.95;46.62;101695.03;4940031;28;45508;-62
2022/05/06 10:46:58;;;;;;;;;17.00;15.75;;;;;19.98;45.88;101692.16;4942284;28;45331;-63
2022/05/06 10:49:51;;;;;;;;;12.00;10.75;;;;;20.09;46.17;101694.16;4961601;28;45307;-62
2022/05/06 10:52:26;;;;;;;;;15.50;13.75;;;;;20.25;45.94;101688.72;4943440;28;45355;-62
2022/05/06 10:54:55;;;;;;;;;12.25;12.25;;;;;20.37;44.59;101683.53;4957004;28;45393;-61
2022/05/06 10:57:22;;;;;;;;;12.25;11.50;;;;;20.34;45.22;101684.59;4958556;28;45229;-62
2022/05/06 11:00:01;;;;;;;;;12.00;12.00;;;;;20.25;44.56;101683.38;4942526;28;45264;-61
2022/05/06 11:02:29;;;;;;;;;10.75;10.75;;;;;20.27;45.32;101677.91;4940381;28;46100;-62
2022/05/06 11:05:02;;;;;;;;;13.50;12.75;;;;;20.42;44.79;101684.09;4957427;28;45292;-61
2022/05/06 11:07:29;;;;;;;;;13.25;11.50;;;;;20.51;43.82;101685.31;4958070;28;45289;-62
2022/05/06 11:09:55;;;;;;;;;12.75;11.75;;;;;20.54;44.30;101683.31;4940527;28;45222;-62
2022/05/06 11:12:35;;;;;;;;;10.50;10.50;;;;;20.58;43.24;101673.25;4958165;28;45466;-62
2022/05/06 11:15:06;;;;;;;;;13.25;13.25;;;;;20.68;43.49;101684.22;4956917;28;45485;-62
2022/05/06 11:17:32;;;;;;;;;15.00;13.75;;;;;20.69;42.85;101667.22;4957222;28;45173;-61
2022/05/06 11:20:02;;;;;;;;;16.00;14.00;;;;;20.77;42.39;101670.25;4957506;28;45748;-62
2022/05/06 11:22:27;;;;;;;;;13.00;12.75;;;;;20.83;42.30;101663.66;4957995;28;46030;-62
2022/05/06 11:24:56;;;;;;;;;11.25;11.25;;;;;20.91;42.75;101657.78;4956528;28;45477;-61
2022/05/06 11:27:22;;;;;;;;;13.50;13.50;;;;;21.02;42.71;101660.59;4957561;28;45377;-62
2022/05/06 11:29:55;;;;;;;;;12.25;10.25;;;;;21.15;42.83;101666.00;4956733;28;45560;-62
2022/05/06 11:32:22;;;;;;;;;14.50;14.00;;;;;21.28;42.87;101660.66;4957609;28;46320;-63
2022/05/06 11:34:55;;;;;;;;;13.50;12.00;;;;;21.44;42.11;101655.09;4956418;28;45148;-63
2022/05/06 11:37:25;;;;;;;;;9.25;9.25;;;;;21.50;41.73;101665.38;4956745;28;44713;-61
2022/05/06 11:39:51;;;;;;;;;13.50;11.00;;;;;21.43;41.32;101653.38;4956065;28;45307;-62
2022/05/06 11:42:24;;;;;;;;;14.50;14.00;;;;;21.38;41.28;101651.03;4956130;28;45420;-62
2022/05/06 11:47:43;;;;;;;;;23.75;17.00;;;;;21.42;41.11;101660.56;4956364;28;45337;-61
2022/05/06 11:50:09;;;;;;;;;10.50;10.50;;;;;21.42;40.30;101657.91;4956655;28;45300;-61
2022/05/06 11:52:37;;;;;;;;;9.50;9.50;;;;;21.49;41.07;101647.59;4956906;28;46573;-63
2022/05/06 11:55:04;;;;;;;;;15.25;14.00;;;;;21.60;41.24;101652.22;4957035;28;45418;-61